Terminal Aerodrome Forecast
Issued by NWS Cleveland, OH

Home | Current Version | Previous Version | Text Only | Print | Product List | Glossary On
Versions: 1 2 3 4 5 6 7 8 9 10 11 12 13 14
865
FTUS41 KCLE 252324
TAFCAK
TAF
KCAK 252324Z 2600/2624 09005KT P6SM SCT250
     FM261000 17008KT P6SM OVC100
     FM261500 25012KT 5SM -SHRA OVC025
     FM262000 28014G24KT P6SM BKN070=

USA.gov is the U.S. government's official web portal to all federal, state and local government web resources and services.